KLWV/LWV METAR and TAF weather

Enter ICAO airport designator
Station Type Date Time Source
KLWV METAR 2019/05/26 00:53 UTC NOAA

KLWV 260053Z AUTO 19007KT 10SM CLR 27/22 A3002 RMK AO2 SLP160 T02720217 $


Station Type Date Time Source
KLWV Decoded METAR 2019/05/26 00:53 UTC NOAA

LAWRENCEVILLE-VINCENNES INTERNATIONAL , IL, United States (KLWV) 38-46N 87-36W 131M
May 25, 2019 - 08:53 PM EDT / 2019.05.26 0053 UTC
Wind: from the S (190 degrees) at 8 MPH (7 KT):0
Visibility: 10 mile(s):0
Sky conditions: clear
Temperature: 81.0 F (27.2 C)
Dew Point: 71.1 F (21.7 C)
Relative Humidity: 71%
Pressure (altimeter): 30.02 in. Hg (1016 hPa)
ob: KLWV 260053Z AUTO 19007KT 10SM CLR 27/22 A3002 RMK AO2 SLP160 T02720217
cycle: 1

Station Type Date Time Source
KLWV TAF UTC NOAA

Error!

Example: see airport list